sensor_id;sensor_type;location;lat;lon;timestamp;temperature;humidity
14893;DHT22;7538;53.626;9.906;2023-03-12T00:00:16;2.10;99.90
14893;DHT22;7538;53.626;9.906;2023-03-12T00:02:42;2.10;99.90
14893;DHT22;7538;53.626;9.906;2023-03-12T00:05:10;2.00;99.90
14893;DHT22;7538;53.626;9.906;2023-03-12T00:07:37;2.00;99.90
14893;DHT22;7538;53.626;9.906;2023-03-12T00:10:06;2.00;99.90
14893;DHT22;7538;53.626;9.906;2023-03-12T00:12:33;2.00;99.90
14893;DHT22;7538;53.626;9.906;2023-03-12T00:15:00;2.00;99.90
14893;DHT22;7538;53.626;9.906;2023-03-12T00:17:27;2.00;99.90
14893;DHT22;7538;53.626;9.906;2023-03-12T00:19:54;2.10;99.90
14893;DHT22;7538;53.626;9.906;2023-03-12T00:22:21;2.10;99.90
14893;DHT22;7538;53.626;9.906;2023-03-12T00:24:50;2.10;99.90
14893;DHT22;7538;53.626;9.906;2023-03-12T00:27:19;2.10;99.90
14893;DHT22;7538;53.626;9.906;2023-03-12T00:29:45;2.10;99.90
14893;DHT22;7538;53.626;9.906;2023-03-12T00:32:13;3.40;99.90
14893;DHT22;7538;53.626;9.906;2023-03-12T00:34:39;2.00;99.90
14893;DHT22;7538;53.626;9.906;2023-03-12T00:37:06;2.00;99.90
14893;DHT22;7538;53.626;9.906;2023-03-12T00:39:34;0.80;99.90
14893;DHT22;7538;53.626;9.906;2023-03-12T00:42:01;2.00;99.90
14893;DHT22;7538;53.626;9.906;2023-03-12T00:44:29;1.90;99.90
14893;DHT22;7538;53.626;9.906;2023-03-12T00:46:56;1.90;99.90
14893;DHT22;7538;53.626;9.906;2023-03-12T00:49:22;1.90;99.90
14893;DHT22;7538;53.626;9.906;2023-03-12T00:51:49;2.50;99.90
14893;DHT22;7538;53.626;9.906;2023-03-12T00:54:16;1.90;99.90
14893;DHT22;7538;53.626;9.906;2023-03-12T00:56:43;1.90;99.90
14893;DHT22;7538;53.626;9.906;2023-03-12T00:59:11;1.90;99.90
14893;DHT22;7538;53.626;9.906;2023-03-12T01:01:39;1.90;99.90
14893;DHT22;7538;53.626;9.906;2023-03-12T01:04:07;1.90;99.90
14893;DHT22;7538;53.626;9.906;2023-03-12T01:06:34;1.90;99.90
14893;DHT22;7538;53.626;9.906;2023-03-12T01:09:01;1.90;99.90
14893;DHT22;7538;53.626;9.906;2023-03-12T01:11:29;1.90;99.90
14893;DHT22;7538;53.626;9.906;2023-03-12T01:13:57;1.90;99.90
14893;DHT22;7538;53.626;9.906;2023-03-12T01:16:24;1.80;99.90
14893;DHT22;7538;53.626;9.906;2023-03-12T01:18:54;1.80;99.90
14893;DHT22;7538;53.626;9.906;2023-03-12T01:21:21;1.70;99.90
14893;DHT22;7538;53.626;9.906;2023-03-12T01:23:47;1.70;99.90
14893;DHT22;7538;53.626;9.906;2023-03-12T01:26:14;1.70;99.90
14893;DHT22;7538;53.626;9.906;2023-03-12T01:28:41;1.70;99.90
14893;DHT22;7538;53.626;9.906;2023-03-12T01:31:09;1.70;99.90
14893;DHT22;7538;53.626;9.906;2023-03-12T01:33:37;1.70;99.90
14893;DHT22;7538;53.626;9.906;2023-03-12T01:36:15;1.70;99.90
14893;DHT22;7538;53.626;9.906;2023-03-12T01:38:43;1.70;99.90
14893;DHT22;7538;53.626;9.906;2023-03-12T01:41:10;1.80;99.90
14893;DHT22;7538;53.626;9.906;2023-03-12T01:43:38;1.80;99.90
14893;DHT22;7538;53.626;9.906;2023-03-12T01:48:52;2.00;99.90
14893;DHT22;7538;53.626;9.906;2023-03-12T01:51:24;2.10;99.90
14893;DHT22;7538;53.626;9.906;2023-03-12T01:53:55;2.10;99.90
14893;DHT22;7538;53.626;9.906;2023-03-12T01:56:26;2.20;99.90
14893;DHT22;7538;53.626;9.906;2023-03-12T01:58:56;2.30;99.90
14893;DHT22;7538;53.626;9.906;2023-03-12T02:01:24;2.30;99.90
14893;DHT22;7538;53.626;9.906;2023-03-12T02:03:52;2.40;99.90
14893;DHT22;7538;53.626;9.906;2023-03-12T02:06:25;2.40;99.90
14893;DHT22;7538;53.626;9.906;2023-03-12T02:08:56;2.50;99.90
14893;DHT22;7538;53.626;9.906;2023-03-12T02:11:24;2.50;99.90
14893;DHT22;7538;53.626;9.906;2023-03-12T02:13:50;2.50;99.90
14893;DHT22;7538;53.626;9.906;2023-03-12T02:16:17;2.60;99.90
14893;DHT22;7538;53.626;9.906;2023-03-12T02:18:46;2.60;99.90
14893;DHT22;7538;53.626;9.906;2023-03-12T02:21:17;2.60;99.90
14893;DHT22;7538;53.626;9.906;2023-03-12T02:23:54;2.70;99.90
14893;DHT22;7538;53.626;9.906;2023-03-12T02:26:23;2.70;99.90
14893;DHT22;7538;53.626;9.906;2023-03-12T02:28:51;2.80;99.90
14893;DHT22;7538;53.626;9.906;2023-03-12T02:31:23;2.80;99.90
14893;DHT22;7538;53.626;9.906;2023-03-12T02:33:52;2.80;99.90
14893;DHT22;7538;53.626;9.906;2023-03-12T02:36:20;3.40;99.90
14893;DHT22;7538;53.626;9.906;2023-03-12T02:38:48;2.80;99.90
14893;DHT22;7538;53.626;9.906;2023-03-12T02:41:19;2.80;99.90
14893;DHT22;7538;53.626;9.906;2023-03-12T02:43:50;2.80;99.90
14893;DHT22;7538;53.626;9.906;2023-03-12T02:46:19;2.80;99.90
14893;DHT22;7538;53.626;9.906;2023-03-12T02:48:46;2.80;99.90
14893;DHT22;7538;53.626;9.906;2023-03-12T02:51:13;2.80;99.90
14893;DHT22;7538;53.626;9.906;2023-03-12T02:53:39;2.80;99.90
14893;DHT22;7538;53.626;9.906;2023-03-12T02:56:06;0.90;99.90
14893;DHT22;7538;53.626;9.906;2023-03-12T02:58:33;2.70;99.90
14893;DHT22;7538;53.626;9.906;2023-03-12T03:01:02;2.70;99.90
14893;DHT22;7538;53.626;9.906;2023-03-12T03:03:29;2.60;99.90
14893;DHT22;7538;53.626;9.906;2023-03-12T03:05:56;2.50;99.90
14893;DHT22;7538;53.626;9.906;2023-03-12T03:08:23;2.50;99.90
14893;DHT22;7538;53.626;9.906;2023-03-12T03:10:50;2.40;99.90
14893;DHT22;7538;53.626;9.906;2023-03-12T03:13:17;2.30;99.90
14893;DHT22;7538;53.626;9.906;2023-03-12T03:15:44;2.30;99.90
14893;DHT22;7538;53.626;9.906;2023-03-12T03:18:12;2.20;99.90
14893;DHT22;7538;53.626;9.906;2023-03-12T03:20:39;2.20;99.90
14893;DHT22;7538;53.626;9.906;2023-03-12T03:23:08;2.10;99.90
14893;DHT22;7538;53.626;9.906;2023-03-12T03:25:35;2.10;99.90
14893;DHT22;7538;53.626;9.906;2023-03-12T03:28:02;2.00;99.90
14893;DHT22;7538;53.626;9.906;2023-03-12T03:30:29;2.00;99.90
14893;DHT22;7538;53.626;9.906;2023-03-12T03:32:56;2.00;99.90
14893;DHT22;7538;53.626;9.906;2023-03-12T03:35:25;1.90;99.90
14893;DHT22;7538;53.626;9.906;2023-03-12T03:37:52;1.90;99.90
14893;DHT22;7538;53.626;9.906;2023-03-12T03:40:19;1.80;99.90
14893;DHT22;7538;53.626;9.906;2023-03-12T03:42:46;1.70;99.90
14893;DHT22;7538;53.626;9.906;2023-03-12T03:45:12;1.70;99.90
14893;DHT22;7538;53.626;9.906;2023-03-12T03:47:39;2.30;99.90
14893;DHT22;7538;53.626;9.906;2023-03-12T03:50:06;1.70;99.90
14893;DHT22;7538;53.626;9.906;2023-03-12T03:52:35;1.60;99.90
14893;DHT22;7538;53.626;9.906;2023-03-12T03:55:02;1.70;99.90
14893;DHT22;7538;53.626;9.906;2023-03-12T03:57:29;1.60;99.90
14893;DHT22;7538;53.626;9.906;2023-03-12T03:59:57;1.70;99.90
14893;DHT22;7538;53.626;9.906;2023-03-12T04:02:25;1.60;99.90
14893;DHT22;7538;53.626;9.906;2023-03-12T04:04:56;1.70;99.90
14893;DHT22;7538;53.626;9.906;2023-03-12T04:07:23;1.60;99.90
14893;DHT22;7538;53.626;9.906;2023-03-12T04:09:51;1.60;99.90
14893;DHT22;7538;53.626;9.906;2023-03-12T04:12:18;1.60;99.90
14893;DHT22;7538;53.626;9.906;2023-03-12T04:14:45;1.60;99.90
14893;DHT22;7538;53.626;9.906;2023-03-12T04:17:12;1.60;99.90
14893;DHT22;7538;53.626;9.906;2023-03-12T04:19:38;1.60;99.90
14893;DHT22;7538;53.626;9.906;2023-03-12T04:22:05;1.50;99.90
14893;DHT22;7538;53.626;9.906;2023-03-12T04:24:35;1.50;99.90
14893;DHT22;7538;53.626;9.906;2023-03-12T04:27:03;1.50;99.90
14893;DHT22;7538;53.626;9.906;2023-03-12T04:29:30;1.50;99.90
14893;DHT22;7538;53.626;9.906;2023-03-12T04:31:57;1.40;99.90
14893;DHT22;7538;53.626;9.906;2023-03-12T04:34:24;1.40;99.90
14893;DHT22;7538;53.626;9.906;2023-03-12T04:36:52;1.30;99.90
14893;DHT22;7538;53.626;9.906;2023-03-12T04:39:19;1.30;99.90
14893;DHT22;7538;53.626;9.906;2023-03-12T04:41:46;1.30;99.90
14893;DHT22;7538;53.626;9.906;2023-03-12T04:44:14;1.30;99.90
14893;DHT22;7538;53.626;9.906;2023-03-12T04:46:42;1.20;99.90
14893;DHT22;7538;53.626;9.906;2023-03-12T04:49:09;1.20;99.90
14893;DHT22;7538;53.626;9.906;2023-03-12T04:51:36;1.10;99.90
14893;DHT22;7538;53.626;9.906;2023-03-12T04:54:03;1.10;99.90
14893;DHT22;7538;53.626;9.906;2023-03-12T04:56:31;1.10;99.90
14893;DHT22;7538;53.626;9.906;2023-03-12T04:58:58;1.00;99.90
14893;DHT22;7538;53.626;9.906;2023-03-12T05:01:30;1.00;99.90
14893;DHT22;7538;53.626;9.906;2023-03-12T05:03:58;1.00;99.90
14893;DHT22;7538;53.626;9.906;2023-03-12T05:06:27;1.00;99.90
14893;DHT22;7538;53.626;9.906;2023-03-12T05:08:54;1.00;99.90
14893;DHT22;7538;53.626;9.906;2023-03-12T05:11:23;1.00;99.90
14893;DHT22;7538;53.626;9.906;2023-03-12T05:13:50;1.00;99.90
14893;DHT22;7538;53.626;9.906;2023-03-12T05:16:18;1.00;99.90
14893;DHT22;7538;53.626;9.906;2023-03-12T05:18:47;1.00;99.90
14893;DHT22;7538;53.626;9.906;2023-03-12T05:21:16;1.10;99.90
14893;DHT22;7538;53.626;9.906;2023-03-12T05:23:47;1.10;99.90
14893;DHT22;7538;53.626;9.906;2023-03-12T05:26:16;1.10;99.90
14893;DHT22;7538;53.626;9.906;2023-03-12T05:28:43;1.10;99.90
14893;DHT22;7538;53.626;9.906;2023-03-12T05:31:11;1.10;99.90
14893;DHT22;7538;53.626;9.906;2023-03-12T05:33:38;4.10;99.90
14893;DHT22;7538;53.626;9.906;2023-03-12T05:36:08;1.20;99.90
14893;DHT22;7538;53.626;9.906;2023-03-12T05:38:39;1.20;99.90
14893;DHT22;7538;53.626;9.906;2023-03-12T05:41:08;1.30;99.90
14893;DHT22;7538;53.626;9.906;2023-03-12T05:43:35;1.30;99.90
14893;DHT22;7538;53.626;9.906;2023-03-12T05:46:04;1.30;99.90
14893;DHT22;7538;53.626;9.906;2023-03-12T05:48:30;1.40;99.90
14893;DHT22;7538;53.626;9.906;2023-03-12T05:50:58;1.40;99.90
14893;DHT22;7538;53.626;9.906;2023-03-12T05:53:26;1.50;99.90
14893;DHT22;7538;53.626;9.906;2023-03-12T05:55:53;1.50;99.90
14893;DHT22;7538;53.626;9.906;2023-03-12T05:58:20;1.60;99.90
14893;DHT22;7538;53.626;9.906;2023-03-12T06:00:48;1.60;99.90
14893;DHT22;7538;53.626;9.906;2023-03-12T06:03:16;1.70;99.90
14893;DHT22;7538;53.626;9.906;2023-03-12T06:05:43;1.70;99.90
14893;DHT22;7538;53.626;9.906;2023-03-12T06:08:10;1.70;99.90
14893;DHT22;7538;53.626;9.906;2023-03-12T06:10:39;1.70;99.90
14893;DHT22;7538;53.626;9.906;2023-03-12T06:13:06;1.70;99.90
14893;DHT22;7538;53.626;9.906;2023-03-12T06:15:34;1.70;99.90
14893;DHT22;7538;53.626;9.906;2023-03-12T06:18:01;1.90;99.90
14893;DHT22;7538;53.626;9.906;2023-03-12T06:20:28;1.90;99.90
14893;DHT22;7538;53.626;9.906;2023-03-12T06:22:56;2.00;99.90
14893;DHT22;7538;53.626;9.906;2023-03-12T06:25:25;2.00;99.90
14893;DHT22;7538;53.626;9.906;2023-03-12T06:27:57;2.00;99.90
14893;DHT22;7538;53.626;9.906;2023-03-12T06:30:24;2.10;99.90
14893;DHT22;7538;53.626;9.906;2023-03-12T06:32:52;3.00;99.90
14893;DHT22;7538;53.626;9.906;2023-03-12T06:35:19;2.10;99.90
14893;DHT22;7538;53.626;9.906;2023-03-12T06:37:46;2.10;99.90
14893;DHT22;7538;53.626;9.906;2023-03-12T06:40:13;2.20;99.90
14893;DHT22;7538;53.626;9.906;2023-03-12T06:42:40;2.20;99.90
14893;DHT22;7538;53.626;9.906;2023-03-12T06:45:09;2.30;99.90
14893;DHT22;7538;53.626;9.906;2023-03-12T06:47:37;2.30;99.90
14893;DHT22;7538;53.626;9.906;2023-03-12T06:50:09;2.40;99.90
14893;DHT22;7538;53.626;9.906;2023-03-12T06:52:36;2.50;99.90
14893;DHT22;7538;53.626;9.906;2023-03-12T06:55:05;2.60;99.90
14893;DHT22;7538;53.626;9.906;2023-03-12T06:57:32;2.70;99.90
14893;DHT22;7538;53.626;9.906;2023-03-12T07:00:04;2.90;99.90
14893;DHT22;7538;53.626;9.906;2023-03-12T07:02:33;3.20;99.90
14893;DHT22;7538;53.626;9.906;2023-03-12T07:05:01;3.60;99.90
14893;DHT22;7538;53.626;9.906;2023-03-12T07:07:28;1.70;99.90
14893;DHT22;7538;53.626;9.906;2023-03-12T07:09:56;4.20;99.90
14893;DHT22;7538;53.626;9.906;2023-03-12T07:12:23;4.40;99.90
14893;DHT22;7538;53.626;9.906;2023-03-12T07:14:50;4.60;99.90
14893;DHT22;7538;53.626;9.906;2023-03-12T07:17:17;4.70;99.90
14893;DHT22;7538;53.626;9.906;2023-03-12T07:19:46;4.80;99.90
14893;DHT22;7538;53.626;9.906;2023-03-12T07:22:12;4.80;99.90
14893;DHT22;7538;53.626;9.906;2023-03-12T07:24:39;4.80;99.90
14893;DHT22;7538;53.626;9.906;2023-03-12T07:27:06;4.80;99.90
14893;DHT22;7538;53.626;9.906;2023-03-12T07:29:33;4.80;99.90
14893;DHT22;7538;53.626;9.906;2023-03-12T07:32:00;4.80;99.90
14893;DHT22;7538;53.626;9.906;2023-03-12T07:34:27;4.80;99.90
14893;DHT22;7538;53.626;9.906;2023-03-12T07:36:56;4.80;99.90
14893;DHT22;7538;53.626;9.906;2023-03-12T07:39:23;4.90;99.90
14893;DHT22;7538;53.626;9.906;2023-03-12T07:41:50;5.00;99.90
14893;DHT22;7538;53.626;9.906;2023-03-12T07:44:17;5.20;99.90
14893;DHT22;7538;53.626;9.906;2023-03-12T07:46:45;5.40;99.90
14893;DHT22;7538;53.626;9.906;2023-03-12T07:49:12;5.60;99.90
14893;DHT22;7538;53.626;9.906;2023-03-12T07:51:39;5.80;99.90
14893;DHT22;7538;53.626;9.906;2023-03-12T07:54:07;6.20;99.90
14893;DHT22;7538;53.626;9.906;2023-03-12T07:56:34;6.60;99.90
14893;DHT22;7538;53.626;9.906;2023-03-12T07:59:01;7.10;99.90
14893;DHT22;7538;53.626;9.906;2023-03-12T08:01:28;7.60;99.90
14893;DHT22;7538;53.626;9.906;2023-03-12T08:03:56;7.90;99.90
14893;DHT22;7538;53.626;9.906;2023-03-12T08:06:23;8.10;99.90
14893;DHT22;7538;53.626;9.906;2023-03-12T08:08:52;8.20;99.90
14893;DHT22;7538;53.626;9.906;2023-03-12T08:11:27;8.40;99.90
14893;DHT22;7538;53.626;9.906;2023-03-12T08:13:55;8.80;99.90
14893;DHT22;7538;53.626;9.906;2023-03-12T08:16:22;9.20;99.10
14893;DHT22;7538;53.626;9.906;2023-03-12T08:18:49;9.40;98.40
14893;DHT22;7538;53.626;9.906;2023-03-12T08:21:16;9.40;97.60
14893;DHT22;7538;53.626;9.906;2023-03-12T08:23:43;9.30;97.50
14893;DHT22;7538;53.626;9.906;2023-03-12T08:26:10;9.20;97.10
14893;DHT22;7538;53.626;9.906;2023-03-12T08:28:39;9.00;97.50
14893;DHT22;7538;53.626;9.906;2023-03-12T08:31:06;8.90;97.50
14893;DHT22;7538;53.626;9.906;2023-03-12T08:33:34;8.60;97.60
14893;DHT22;7538;53.626;9.906;2023-03-12T08:36:01;8.40;98.00
14893;DHT22;7538;53.626;9.906;2023-03-12T08:38:28;8.30;98.40
14893;DHT22;7538;53.626;9.906;2023-03-12T08:40:57;8.20;98.20
14893;DHT22;7538;53.626;9.906;2023-03-12T08:43:24;7.90;98.10
14893;DHT22;7538;53.626;9.906;2023-03-12T08:45:56;7.60;98.80
14893;DHT22;7538;53.626;9.906;2023-03-12T08:48:24;7.50;99.80
14893;DHT22;7538;53.626;9.906;2023-03-12T08:50:53;7.40;99.90
14893;DHT22;7538;53.626;9.906;2023-03-12T08:53:22;7.30;99.90
14893;DHT22;7538;53.626;9.906;2023-03-12T08:55:51;7.50;99.90
14893;DHT22;7538;53.626;9.906;2023-03-12T08:58:18;7.70;99.90
14893;DHT22;7538;53.626;9.906;2023-03-12T09:00:45;7.70;99.90
14893;DHT22;7538;53.626;9.906;2023-03-12T09:03:13;7.90;99.60
14893;DHT22;7538;53.626;9.906;2023-03-12T09:05:41;7.80;99.20
14893;DHT22;7538;53.626;9.906;2023-03-12T09:08:10;7.50;98.60
14893;DHT22;7538;53.626;9.906;2023-03-12T09:10:39;7.30;99.30
14893;DHT22;7538;53.626;9.906;2023-03-12T09:13:06;7.30;99.80
14893;DHT22;7538;53.626;9.906;2023-03-12T09:15:35;7.20;99.90
14893;DHT22;7538;53.626;9.906;2023-03-12T09:18:02;7.10;99.90
14893;DHT22;7538;53.626;9.906;2023-03-12T09:20:31;7.00;99.90
14893;DHT22;7538;53.626;9.906;2023-03-12T09:22:58;6.80;99.90
14893;DHT22;7538;53.626;9.906;2023-03-12T09:25:25;6.70;99.90
14893;DHT22;7538;53.626;9.906;2023-03-12T09:27:52;6.80;99.90
14893;DHT22;7538;53.626;9.906;2023-03-12T09:30:20;6.80;99.90
14893;DHT22;7538;53.626;9.906;2023-03-12T09:32:50;7.00;99.90
14893;DHT22;7538;53.626;9.906;2023-03-12T09:35:17;7.10;99.90
14893;DHT22;7538;53.626;9.906;2023-03-12T09:37:48;7.20;99.90
14893;DHT22;7538;53.626;9.906;2023-03-12T09:40:18;7.20;99.90
14893;DHT22;7538;53.626;9.906;2023-03-12T09:42:48;7.20;99.90
14893;DHT22;7538;53.626;9.906;2023-03-12T09:45:20;7.30;99.90
14893;DHT22;7538;53.626;9.906;2023-03-12T09:47:49;7.60;99.90
14893;DHT22;7538;53.626;9.906;2023-03-12T09:50:22;7.80;99.90
14893;DHT22;7538;53.626;9.906;2023-03-12T09:52:55;7.90;97.70
14893;DHT22;7538;53.626;9.906;2023-03-12T09:55:24;7.70;97.50
14893;DHT22;7538;53.626;9.906;2023-03-12T09:57:53;10.30;98.90
14893;DHT22;7538;53.626;9.906;2023-03-12T10:00:22;7.60;98.30
14893;DHT22;7538;53.626;9.906;2023-03-12T10:03:15;7.70;97.80
14893;DHT22;7538;53.626;9.906;2023-03-12T10:06:05;7.60;97.80
14893;DHT22;7538;53.626;9.906;2023-03-12T10:08:46;7.30;97.00
14893;DHT22;7538;53.626;9.906;2023-03-12T10:11:27;7.30;97.40
14893;DHT22;7538;53.626;9.906;2023-03-12T10:14:08;7.50;97.80
14893;DHT22;7538;53.626;9.906;2023-03-12T10:16:52;7.70;96.90
14893;DHT22;7538;53.626;9.906;2023-03-12T10:19:33;7.90;96.20
14893;DHT22;7538;53.626;9.906;2023-03-12T10:22:07;8.10;96.50
14893;DHT22;7538;53.626;9.906;2023-03-12T10:24:50;8.40;94.20
14893;DHT22;7538;53.626;9.906;2023-03-12T10:27:29;8.50;92.90
14893;DHT22;7538;53.626;9.906;2023-03-12T10:30:00;8.30;93.30
14893;DHT22;7538;53.626;9.906;2023-03-12T10:32:36;8.20;93.00
14893;DHT22;7538;53.626;9.906;2023-03-12T10:35:13;8.10;93.10
14893;DHT22;7538;53.626;9.906;2023-03-12T10:37:42;8.00;93.10
14893;DHT22;7538;53.626;9.906;2023-03-12T10:40:14;8.00;92.50
14893;DHT22;7538;53.626;9.906;2023-03-12T10:42:42;8.00;92.60
14893;DHT22;7538;53.626;9.906;2023-03-12T10:45:18;7.80;92.40
14893;DHT22;7538;53.626;9.906;2023-03-12T10:47:49;7.80;92.00
14893;DHT22;7538;53.626;9.906;2023-03-12T10:50:19;7.70;92.80
14893;DHT22;7538;53.626;9.906;2023-03-12T10:52:49;7.60;92.70
14893;DHT22;7538;53.626;9.906;2023-03-12T10:55:26;7.50;93.20
14893;DHT22;7538;53.626;9.906;2023-03-12T10:57:56;7.20;93.00
14893;DHT22;7538;53.626;9.906;2023-03-12T11:00:24;6.90;93.40
14893;DHT22;7538;53.626;9.906;2023-03-12T11:02:57;6.70;93.90
14893;DHT22;7538;53.626;9.906;2023-03-12T11:05:28;6.60;94.80
14893;DHT22;7538;53.626;9.906;2023-03-12T11:07:59;6.70;94.80
14893;DHT22;7538;53.626;9.906;2023-03-12T11:10:41;6.80;94.70
14893;DHT22;7538;53.626;9.906;2023-03-12T11:13:22;6.60;94.10
14893;DHT22;7538;53.626;9.906;2023-03-12T11:15:50;6.70;94.70
14893;DHT22;7538;53.626;9.906;2023-03-12T11:18:33;6.90;94.70
14893;DHT22;7538;53.626;9.906;2023-03-12T11:21:18;7.00;94.70
14893;DHT22;7538;53.626;9.906;2023-03-12T11:24:02;7.10;93.90
14893;DHT22;7538;53.626;9.906;2023-03-12T11:26:40;7.00;93.60
14893;DHT22;7538;53.626;9.906;2023-03-12T11:29:17;6.80;93.70
14893;DHT22;7538;53.626;9.906;2023-03-12T11:31:55;6.80;93.50
14893;DHT22;7538;53.626;9.906;2023-03-12T11:34:32;6.50;93.70
14893;DHT22;7538;53.626;9.906;2023-03-12T11:37:05;6.50;93.90
14893;DHT22;7538;53.626;9.906;2023-03-12T11:39:47;6.60;94.10
14893;DHT22;7538;53.626;9.906;2023-03-12T11:42:30;6.70;93.90
14893;DHT22;7538;53.626;9.906;2023-03-12T11:45:06;6.80;93.80
14893;DHT22;7538;53.626;9.906;2023-03-12T11:47:58;7.00;93.60
14893;DHT22;7538;53.626;9.906;2023-03-12T11:50:40;6.90;93.30
14893;DHT22;7538;53.626;9.906;2023-03-12T11:53:35;7.10;93.00
14893;DHT22;7538;53.626;9.906;2023-03-12T11:56:23;7.00;92.50
14893;DHT22;7538;53.626;9.906;2023-03-12T11:59:01;6.90;92.70
14893;DHT22;7538;53.626;9.906;2023-03-12T12:01:39;7.00;93.00
14893;DHT22;7538;53.626;9.906;2023-03-12T12:04:33;7.00;92.70
14893;DHT22;7538;53.626;9.906;2023-03-12T12:07:09;7.10;92.70
14893;DHT22;7538;53.626;9.906;2023-03-12T12:09:43;7.10;93.00
14893;DHT22;7538;53.626;9.906;2023-03-12T12:12:33;7.20;92.80
14893;DHT22;7538;53.626;9.906;2023-03-12T12:15:12;7.30;93.10
14893;DHT22;7538;53.626;9.906;2023-03-12T12:17:54;7.30;93.10
14893;DHT22;7538;53.626;9.906;2023-03-12T12:20:31;7.40;93.20
14893;DHT22;7538;53.626;9.906;2023-03-12T12:23:15;7.50;93.30
14893;DHT22;7538;53.626;9.906;2023-03-12T12:25:54;7.30;93.00
14893;DHT22;7538;53.626;9.906;2023-03-12T12:28:49;7.10;94.30
14893;DHT22;7538;53.626;9.906;2023-03-12T12:31:29;7.00;95.40
14893;DHT22;7538;53.626;9.906;2023-03-12T12:34:24;6.70;95.70
14893;DHT22;7538;53.626;9.906;2023-03-12T12:36:56;9.20;97.30
14893;DHT22;7538;53.626;9.906;2023-03-12T12:39:30;6.60;96.70
14893;DHT22;7538;53.626;9.906;2023-03-12T12:42:01;6.60;97.10
14893;DHT22;7538;53.626;9.906;2023-03-12T12:44:32;6.40;98.10
14893;DHT22;7538;53.626;9.906;2023-03-12T12:47:17;6.40;98.20
14893;DHT22;7538;53.626;9.906;2023-03-12T12:49:47;6.10;99.20
14893;DHT22;7538;53.626;9.906;2023-03-12T12:52:17;5.90;99.90
14893;DHT22;7538;53.626;9.906;2023-03-12T12:54:52;5.90;99.90
14893;DHT22;7538;53.626;9.906;2023-03-12T12:57:24;6.00;99.90
14893;DHT22;7538;53.626;9.906;2023-03-12T13:00:07;6.20;99.90
14893;DHT22;7538;53.626;9.906;2023-03-12T13:02:41;6.30;99.90
14893;DHT22;7538;53.626;9.906;2023-03-12T13:05:21;6.30;99.90
14893;DHT22;7538;53.626;9.906;2023-03-12T13:07:51;6.30;99.90
14893;DHT22;7538;53.626;9.906;2023-03-12T13:10:42;6.40;99.90
14893;DHT22;7538;53.626;9.906;2023-03-12T13:13:10;6.30;99.90
14893;DHT22;7538;53.626;9.906;2023-03-12T13:15:39;6.10;99.90
14893;DHT22;7538;53.626;9.906;2023-03-12T13:18:20;5.90;99.90
14893;DHT22;7538;53.626;9.906;2023-03-12T13:21:08;5.80;99.90
14893;DHT22;7538;53.626;9.906;2023-03-12T13:23:45;5.80;99.90
14893;DHT22;7538;53.626;9.906;2023-03-12T13:26:19;5.80;99.90
14893;DHT22;7538;53.626;9.906;2023-03-12T13:29:11;5.90;99.90
14893;DHT22;7538;53.626;9.906;2023-03-12T13:31:47;5.80;99.90
14893;DHT22;7538;53.626;9.906;2023-03-12T13:34:41;6.00;99.90
14893;DHT22;7538;53.626;9.906;2023-03-12T13:37:28;5.80;99.90
14893;DHT22;7538;53.626;9.906;2023-03-12T13:39:59;7.20;99.90
14893;DHT22;7538;53.626;9.906;2023-03-12T13:42:38;5.60;99.90
14893;DHT22;7538;53.626;9.906;2023-03-12T13:45:31;5.60;99.90
14893;DHT22;7538;53.626;9.906;2023-03-12T13:48:00;5.60;99.90
14893;DHT22;7538;53.626;9.906;2023-03-12T13:50:29;8.50;99.90
14893;DHT22;7538;53.626;9.906;2023-03-12T13:53:02;5.60;99.90
14893;DHT22;7538;53.626;9.906;2023-03-12T13:55:31;5.60;99.90
14893;DHT22;7538;53.626;9.906;2023-03-12T13:58:05;5.40;99.90
14893;DHT22;7538;53.626;9.906;2023-03-12T14:00:38;5.30;99.90
14893;DHT22;7538;53.626;9.906;2023-03-12T14:03:17;5.30;99.90
14893;DHT22;7538;53.626;9.906;2023-03-12T14:05:53;5.20;99.90
14893;DHT22;7538;53.626;9.906;2023-03-12T14:08:42;5.10;99.90
14893;DHT22;7538;53.626;9.906;2023-03-12T14:11:27;5.00;99.90
14893;DHT22;7538;53.626;9.906;2023-03-12T14:14:11;4.90;99.90
14893;DHT22;7538;53.626;9.906;2023-03-12T14:16:42;4.80;99.90
14893;DHT22;7538;53.626;9.906;2023-03-12T14:19:12;4.70;99.90
14893;DHT22;7538;53.626;9.906;2023-03-12T14:21:43;4.60;99.90
14893;DHT22;7538;53.626;9.906;2023-03-12T14:24:18;4.60;99.90
14893;DHT22;7538;53.626;9.906;2023-03-12T14:26:45;4.40;99.90
14893;DHT22;7538;53.626;9.906;2023-03-12T14:29:19;4.30;99.90
14893;DHT22;7538;53.626;9.906;2023-03-12T14:31:48;4.20;99.90
14893;DHT22;7538;53.626;9.906;2023-03-12T14:34:17;4.10;99.90
14893;DHT22;7538;53.626;9.906;2023-03-12T14:36:57;3.30;99.90
14893;DHT22;7538;53.626;9.906;2023-03-12T14:39:29;4.30;99.90
14893;DHT22;7538;53.626;9.906;2023-03-12T14:42:03;4.40;99.90
14893;DHT22;7538;53.626;9.906;2023-03-12T14:44:33;4.40;99.90
14893;DHT22;7538;53.626;9.906;2023-03-12T14:47:02;4.40;99.90
14893;DHT22;7538;53.626;9.906;2023-03-12T14:49:37;4.50;99.90
14893;DHT22;7538;53.626;9.906;2023-03-12T14:52:10;4.50;99.90
14893;DHT22;7538;53.626;9.906;2023-03-12T14:54:38;4.50;99.90
14893;DHT22;7538;53.626;9.906;2023-03-12T14:57:10;4.50;99.90
14893;DHT22;7538;53.626;9.906;2023-03-12T14:59:39;4.30;99.90
14893;DHT22;7538;53.626;9.906;2023-03-12T15:02:12;4.30;99.90
14893;DHT22;7538;53.626;9.906;2023-03-12T15:04:39;4.30;99.90
14893;DHT22;7538;53.626;9.906;2023-03-12T15:07:11;4.30;99.90
14893;DHT22;7538;53.626;9.906;2023-03-12T15:09:42;4.10;99.90
14893;DHT22;7538;53.626;9.906;2023-03-12T15:12:18;3.90;99.90
14893;DHT22;7538;53.626;9.906;2023-03-12T15:14:48;3.80;99.90
14893;DHT22;7538;53.626;9.906;2023-03-12T15:17:18;3.80;99.90
14893;DHT22;7538;53.626;9.906;2023-03-12T15:19:46;3.80;99.90
14893;DHT22;7538;53.626;9.906;2023-03-12T15:22:17;3.90;99.90
14893;DHT22;7538;53.626;9.906;2023-03-12T15:24:46;3.90;99.90
14893;DHT22;7538;53.626;9.906;2023-03-12T15:27:31;3.80;99.90
14893;DHT22;7538;53.626;9.906;2023-03-12T15:29:59;3.80;99.90
14893;DHT22;7538;53.626;9.906;2023-03-12T15:32:27;3.80;99.90
14893;DHT22;7538;53.626;9.906;2023-03-12T15:34:56;3.70;99.90
14893;DHT22;7538;53.626;9.906;2023-03-12T15:37:29;3.60;99.90
14893;DHT22;7538;53.626;9.906;2023-03-12T15:40:03;3.60;99.90
14893;DHT22;7538;53.626;9.906;2023-03-12T15:42:37;3.50;99.90
14893;DHT22;7538;53.626;9.906;2023-03-12T15:45:16;3.50;99.90
14893;DHT22;7538;53.626;9.906;2023-03-12T15:47:44;3.50;99.90
14893;DHT22;7538;53.626;9.906;2023-03-12T15:50:20;3.50;99.90
14893;DHT22;7538;53.626;9.906;2023-03-12T15:53:00;3.60;99.90
14893;DHT22;7538;53.626;9.906;2023-03-12T15:55:29;2.70;99.90
14893;DHT22;7538;53.626;9.906;2023-03-12T15:57:57;3.60;99.90
14893;DHT22;7538;53.626;9.906;2023-03-12T16:00:26;2.80;99.90
14893;DHT22;7538;53.626;9.906;2023-03-12T16:02:55;3.60;99.90
14893;DHT22;7538;53.626;9.906;2023-03-12T16:05:26;3.50;99.90
14893;DHT22;7538;53.626;9.906;2023-03-12T16:07:54;3.60;99.90
14893;DHT22;7538;53.626;9.906;2023-03-12T16:10:24;3.60;99.90
14893;DHT22;7538;53.626;9.906;2023-03-12T16:12:59;3.70;99.90
14893;DHT22;7538;53.626;9.906;2023-03-12T16:15:30;3.70;99.90
14893;DHT22;7538;53.626;9.906;2023-03-12T16:17:58;3.70;99.90
14893;DHT22;7538;53.626;9.906;2023-03-12T16:20:26;3.70;99.90
14893;DHT22;7538;53.626;9.906;2023-03-12T16:22:53;3.70;99.90
14893;DHT22;7538;53.626;9.906;2023-03-12T16:25:23;3.70;99.90
14893;DHT22;7538;53.626;9.906;2023-03-12T16:27:51;3.70;99.90